Time;durP1;ratioP1;P1;durP2;ratioP2;P2;SDS_P1;SDS_P2;PMS_P1;PMS_P2;Temp;Humidity;BMP_temperature;BMP_pressure;BME280_temperature;BME280_humidity;BME280_pressure;Samples;Min_cycle;Max_cycle;Signal;HPM_P1;HPM_P2
2021/12/22 09:11:32;;;;;;;21.63;12.57;;;-4.20;99.90;;;;;;5132202;27;20277;-74
2021/12/22 09:13:57;;;;;;;25.93;13.37;;;-4.20;99.90;;;;;;5132056;28;20422;-75
2021/12/22 09:16:23;;;;;;;25.23;14.40;;;-4.20;99.90;;;;;;5121059;28;20541;-75
2021/12/22 09:18:49;;;;;;;24.03;12.80;;;-4.10;99.90;;;;;;5131966;27;20171;-75
2021/12/22 09:21:16;;;;;;;24.93;14.20;;;-4.20;99.90;;;;;;5130452;28;20224;-75
2021/12/22 09:23:42;;;;;;;19.27;12.03;;;-4.20;99.90;;;;;;5131783;27;20192;-75
2021/12/22 09:26:08;;;;;;;20.60;13.17;;;-4.30;99.90;;;;;;5132285;27;20840;-75
2021/12/22 09:28:35;;;;;;;23.13;12.73;;;-4.40;99.90;;;;;;5131710;27;20461;-75
2021/12/22 09:31:02;;;;;;;21.87;13.17;;;-4.30;99.90;;;;;;5131803;27;20449;-75
2021/12/22 09:33:27;;;;;;;20.47;12.27;;;-4.40;99.90;;;;;;5130317;28;20915;-75
2021/12/22 09:35:55;;;;;;;24.73;13.77;;;-4.40;99.90;;;;;;5131657;27;20421;-75
2021/12/22 09:38:21;;;;;;;20.87;12.23;;;-4.30;99.90;;;;;;5131862;27;20183;-75
2021/12/22 09:40:47;;;;;;;21.57;13.50;;;-4.20;99.90;;;;;;5131347;27;20773;-75
2021/12/22 09:43:13;;;;;;;20.57;12.63;;;-4.10;99.90;;;;;;5130109;28;20186;-75
2021/12/22 09:45:45;;;;;;;22.63;13.70;;;-4.10;99.90;;;;;;5130143;28;20438;-75
2021/12/22 09:53:39;;;;;;;21.33;12.97;;;-3.90;99.90;;;;;;5099483;27;20429;-75
2021/12/22 09:56:06;;;;;;;19.37;11.87;;;-3.80;99.90;;;;;;5131397;27;20427;-75
2021/12/22 09:58:33;;;;;;;24.57;12.93;;;-3.90;99.90;;;;;;5131186;27;20763;-75
2021/12/22 10:00:59;;;;;;;23.87;13.00;;;-3.90;99.90;;;;;;5131086;27;20778;-75
2021/12/22 10:03:25;;;;;;;22.93;12.60;;;-3.80;99.90;;;;;;5130965;27;20486;-75
2021/12/22 10:05:52;;;;;;;19.63;12.27;;;-3.90;99.90;;;;;;5130862;27;20531;-75
2021/12/22 10:08:26;;;;;;;21.20;11.80;;;-3.80;99.90;;;;;;5130964;27;20448;-75
2021/12/22 10:11:04;;;;;;;18.53;12.10;;;-3.80;99.90;;;;;;5130568;27;20460;-76
2021/12/22 10:13:31;;;;;;;18.50;11.30;;;-3.80;99.90;;;;;;5130952;27;20376;-75
2021/12/22 10:15:58;;;;;;;22.30;11.97;;;-3.60;99.90;;;;;;5130766;27;20744;-75
2021/12/22 10:18:27;;;;;;;21.90;12.37;;;-3.50;99.90;;;;;;5129495;28;20415;-75
2021/12/22 10:21:08;;;;;;;15.60;11.00;;;-3.20;99.90;;;;;;5128329;27;20825;-76
2021/12/22 10:23:34;;;;;;;20.67;13.03;;;-2.80;99.90;;;;;;5115757;28;20408;-75
2021/12/22 10:26:07;;;;;;;17.97;11.57;;;-2.40;99.90;;;;;;5116844;28;20431;-75
2021/12/22 10:28:59;;;;;;;21.23;12.83;;;-2.00;99.90;;;;;;5117288;28;20752;-75
2021/12/22 10:31:39;;;;;;;17.83;11.73;;;-1.80;99.90;;;;;;5116798;28;20495;-75
2021/12/22 10:34:11;;;;;;;16.47;11.90;;;-1.50;99.90;;;;;;5115568;28;20956;-76
2021/12/22 10:36:47;;;;;;;20.37;11.73;;;-0.80;99.90;;;;;;5117507;28;20421;-76
2021/12/22 10:39:30;;;;;;;16.40;12.30;;;0.10;99.90;;;;;;5115550;28;20484;-76
2021/12/22 10:42:09;;;;;;;14.80;10.63;;;0.40;99.90;;;;;;5115435;28;20496;-77
2021/12/22 10:44:36;;;;;;;16.10;11.63;;;0.90;99.90;;;;;;5118303;27;20747;-76
2021/12/22 10:47:22;;;;;;;16.13;12.37;;;1.40;99.90;;;;;;5118932;28;20460;-77
2021/12/22 10:50:05;;;;;;;16.50;12.30;;;1.60;99.90;;;;;;5118483;28;20218;-76
2021/12/22 10:52:32;;;;;;;16.27;11.90;;;1.50;99.90;;;;;;5116608;28;20185;-76
2021/12/22 10:55:07;;;;;;;15.53;11.77;;;1.50;99.90;;;;;;5115409;28;20171;-76
2021/12/22 10:57:38;;;;;;;14.03;11.33;;;1.50;99.90;;;;;;5115686;28;20208;-76
2021/12/22 11:00:18;;;;;;;17.00;11.73;;;1.50;99.90;;;;;;5117033;28;20176;-77
2021/12/22 11:03:00;;;;;;;13.07;10.70;;;2.10;99.90;;;;;;5117789;28;20176;-77
2021/12/22 11:05:27;;;;;;;13.60;10.30;;;2.20;99.90;;;;;;5118227;28;20202;-77
2021/12/22 11:07:54;;;;;;;13.47;11.10;;;2.40;99.90;;;;;;5118387;28;20167;-77
2021/12/22 11:10:28;;;;;;;14.37;10.80;;;2.70;99.90;;;;;;5115863;28;20214;-77
2021/12/22 11:13:06;;;;;;;13.93;10.53;;;2.90;99.90;;;;;;5115499;28;20577;-77
2021/12/22 11:15:42;;;;;;;15.00;10.43;;;2.90;99.90;;;;;;5116511;28;20183;-77
2021/12/22 11:18:34;;;;;;;11.90;10.43;;;3.20;99.90;;;;;;5114809;28;20171;-77
2021/12/22 11:21:33;;;;;;;12.97;9.60;;;3.30;99.90;;;;;;5111184;28;20645;-78
2021/12/22 11:23:59;;;;;;;11.73;9.77;;;3.20;99.90;;;;;;5107069;28;20191;-77
2021/12/22 11:26:24;;;;;;;13.77;11.20;;;3.20;99.90;;;;;;5115889;27;20193;-77
2021/12/22 11:28:51;;;;;;;13.17;10.77;;;2.80;99.90;;;;;;5115966;27;20254;-78
2021/12/22 11:31:17;;;;;;;15.23;11.77;;;3.30;99.90;;;;;;5114320;28;20195;-77
2021/12/22 11:33:46;;;;;;;19.73;12.17;;;3.50;99.90;;;;;;5115105;28;20220;-77
2021/12/22 11:36:12;;;;;;;13.07;11.67;;;3.50;99.90;;;;;;5115857;28;20652;-77
2021/12/22 11:38:40;;;;;;;15.67;12.63;;;3.50;99.90;;;;;;5116226;28;20168;-77
2021/12/22 11:41:12;;;;;;;14.27;11.63;;;3.80;99.90;;;;;;5115788;28;20219;-77
2021/12/22 11:43:43;;;;;;;20.80;13.27;;;3.80;99.90;;;;;;5114526;28;20175;-77
2021/12/22 11:46:10;;;;;;;15.83;11.60;;;4.20;99.90;;;;;;5114287;28;20196;-77
2021/12/22 11:48:37;;;;;;;17.63;11.80;;;4.20;99.90;;;;;;5114338;28;20536;-77
2021/12/22 11:51:25;;;;;;;12.47;10.93;;;4.40;99.90;;;;;;5115767;28;20256;-76
2021/12/22 11:53:59;;;;;;;14.00;11.63;;;4.20;99.90;;;;;;5115528;28;20290;-77
2021/12/22 11:56:43;;;;;;;13.60;11.37;;;4.20;99.90;;;;;;5115457;27;20194;-77
2021/12/22 11:59:37;;;;;;;15.77;12.33;;;4.30;99.90;;;;;;5114078;28;20156;-77
2021/12/22 12:02:24;;;;;;;14.07;11.60;;;4.70;99.90;;;;;;5115496;28;20158;-77
2021/12/22 12:04:52;;;;;;;14.20;12.10;;;4.70;99.90;;;;;;5114700;28;20156;-77
2021/12/22 12:07:41;;;;;;;16.13;12.50;;;4.70;99.90;;;;;;5116327;28;20187;-77
2021/12/22 12:10:28;;;;;;;14.57;12.20;;;3.50;99.90;;;;;;5115065;28;20231;-77
2021/12/22 12:13:00;;;;;;;12.90;11.50;;;2.80;99.90;;;;;;5113817;28;20201;-77
2021/12/22 12:21:39;;;;;;;16.40;12.40;;;2.10;99.90;;;;;;5115145;28;20158;-76
2021/12/22 12:22:27;;;;;;;14.93;12.10;;;1.10;99.90;;;;;;5102310;28;20179;-76
2021/12/22 12:25:06;;;;;;;18.43;11.97;;;0.60;99.90;;;;;;5114925;28;20152;-76
2021/12/22 12:27:53;;;;;;;19.97;12.33;;;0.50;99.90;;;;;;5115555;28;20184;-77
2021/12/22 12:30:27;;;;;;;15.57;11.67;;;0.10;99.90;;;;;;5113635;28;20630;-77
2021/12/22 12:32:53;;;;;;;22.17;14.10;;;-0.20;99.90;;;;;;5115749;28;20278;-77
2021/12/22 12:35:26;;;;;;;16.53;13.17;;;-0.30;99.90;;;;;;5114781;28;20652;-77
2021/12/22 12:38:04;;;;;;;20.93;14.10;;;-0.30;99.90;;;;;;5114125;28;20183;-76
2021/12/22 12:40:55;;;;;;;20.93;14.47;;;-0.30;99.90;;;;;;5113819;28;20589;-76
2021/12/22 12:46:34;;;;;;;56.87;36.83;;;-0.60;99.90;;;;;;5114940;28;20421;-76
2021/12/22 12:49:02;;;;;;;21.40;14.90;;;-0.60;99.90;;;;;;5115044;28;20388;-76
2021/12/22 12:51:32;;;;;;;25.17;17.07;;;-0.80;99.90;;;;;;5114574;28;20452;-76
2021/12/22 12:54:17;;;;;;;19.40;13.97;;;-0.90;99.90;;;;;;5113366;28;20417;-76
2021/12/22 12:56:47;;;;;;;21.37;14.20;;;-0.80;99.90;;;;;;5114525;28;20432;-76
2021/12/22 12:59:18;;;;;;;21.43;14.13;;;-0.70;99.90;;;;;;5114996;28;20434;-76
2021/12/22 13:01:47;;;;;;;25.23;13.53;;;-0.60;99.90;;;;;;5115953;28;20394;-78
2021/12/22 13:04:27;;;;;;;19.97;12.83;;;-0.60;99.90;;;;;;5118092;28;20409;-78
2021/12/22 13:06:54;;;;;;;19.00;12.50;;;-0.70;99.90;;;;;;5118871;28;20433;-78
2021/12/22 13:09:42;;;;;;;17.77;12.07;;;-0.70;99.90;;;;;;5118217;28;21002;-78
2021/12/22 13:17:36;;;;;;;20.80;12.27;;;-0.90;99.90;;;;;;5116803;28;20501;-78
2021/12/22 13:20:04;;;;;;;22.07;11.47;;;-0.80;99.90;;;;;;5119415;28;20914;-79
2021/12/22 13:22:32;;;;;;;18.10;11.97;;;-0.70;99.90;;;;;;5120736;28;20409;-78
2021/12/22 13:25:31;;;;;;;20.50;12.27;;;-0.70;99.90;;;;;;5118150;28;20762;-79
2021/12/22 13:28:02;;;;;;;19.23;12.80;;;-0.60;99.90;;;;;;5118142;28;20421;-78
2021/12/22 13:30:29;;;;;;;19.23;13.17;;;-0.60;99.90;;;;;;5116015;28;20437;-78
2021/12/22 13:33:11;;;;;;;24.33;12.93;;;-0.70;99.90;;;;;;5117618;28;20408;-78
2021/12/22 13:35:58;;;;;;;27.87;15.83;;;-0.90;99.90;;;;;;5117044;28;20482;-78
2021/12/22 13:38:35;;;;;;;27.07;15.37;;;-1.10;99.90;;;;;;5117532;28;20413;-79
2021/12/22 13:41:08;;;;;;;26.03;15.83;;;-0.90;99.90;;;;;;5118108;28;20412;-78
2021/12/22 13:43:35;;;;;;;22.57;13.30;;;-1.00;99.90;;;;;;5118729;28;20417;-78
2021/12/22 13:46:07;;;;;;;19.40;12.03;;;-0.90;99.90;;;;;;5117774;28;20452;-78
2021/12/22 13:48:35;;;;;;;24.53;13.23;;;-1.00;99.90;;;;;;5117113;28;20945;-78
2021/12/22 13:51:05;;;;;;;18.13;12.37;;;-1.00;99.90;;;;;;5127737;28;20807;-78
2021/12/22 13:53:32;;;;;;;19.93;12.20;;;-1.00;99.90;;;;;;5129774;28;20458;-78
2021/12/22 13:55:59;;;;;;;25.97;14.63;;;-1.00;99.90;;;;;;5129422;28;20529;-78
2021/12/22 13:58:38;;;;;;;20.60;11.53;;;-1.10;99.90;;;;;;5125065;27;20417;-78
2021/12/22 14:01:10;;;;;;;22.43;11.90;;;-0.90;99.90;;;;;;5117329;28;20455;-77
2021/12/22 14:03:36;;;;;;;20.57;12.37;;;;;;;;;;5118272;28;20433;-77
2021/12/22 14:06:06;;;;;;;17.63;11.47;;;-1.00;99.90;;;;;;5118431;28;20425;-78
2021/12/22 14:08:33;;;;;;;24.70;12.23;;;;;;;;;;5118385;28;20494;-77
2021/12/22 14:10:58;;;;;;;22.77;13.30;;;-1.00;99.90;;;;;;5117647;28;20456;-78
2021/12/22 14:13:29;;;;;;;22.17;12.67;;;-0.90;99.90;;;;;;5116812;28;20418;-77
2021/12/22 14:15:55;;;;;;;23.00;14.20;;;-1.30;99.90;;;;;;5117860;28;20196;-77
2021/12/22 14:18:32;;;;;;;25.10;14.27;;;-1.30;99.90;;;;;;5118125;28;20478;-77
2021/12/22 14:20:58;;;;;;;24.00;13.27;;;;;;;;;;5116867;28;20406;-77
2021/12/22 14:23:24;;;;;;;19.60;11.93;;;;;;;;;;5116597;28;20775;-77
2021/12/22 14:25:51;;;;;;;22.30;13.83;;;-1.00;99.90;;;;;;5116350;28;20483;-77
2021/12/22 14:28:24;;;;;;;22.07;14.07;;;-1.30;99.90;;;;;;5118114;28;20800;-77
2021/12/22 14:30:50;;;;;;;21.57;12.73;;;-1.50;99.90;;;;;;5117579;28;20473;-77
2021/12/22 14:33:19;;;;;;;25.33;12.90;;;-1.60;99.90;;;;;;5116208;28;20416;-77
2021/12/22 14:35:54;;;;;;;18.70;12.23;;;-1.50;99.90;;;;;;5117836;28;20934;-77
2021/12/22 14:38:22;;;;;;;22.77;13.73;;;-1.60;99.90;;;;;;5118338;28;20747;-77
2021/12/22 14:40:55;;;;;;;22.37;13.73;;;-1.60;99.90;;;;;;5116500;28;20417;-77
2021/12/22 14:43:22;;;;;;;29.53;14.00;;;;;;;;;;5120777;28;20412;-77
2021/12/22 14:45:53;;;;;;;22.57;13.97;;;-1.70;99.90;;;;;;5117896;28;20425;-78
2021/12/22 14:48:26;;;;;;;21.13;12.33;;;-1.90;99.90;;;;;;5117262;28;20429;-77
2021/12/22 14:50:56;;;;;;;21.33;12.70;;;-1.80;99.90;;;;;;5116766;28;20460;-77
2021/12/22 14:53:42;;;;;;;20.47;12.53;;;-1.90;99.90;;;;;;5116863;28;20424;-77
2021/12/22 14:56:18;;;;;;;20.00;12.53;;;-1.90;99.90;;;;;;5116547;28;20510;-77
2021/12/22 14:58:45;;;;;;;23.50;13.13;;;-2.00;99.90;;;;;;5117047;28;20503;-77
2021/12/22 15:01:14;;;;;;;24.13;14.07;;;-1.90;99.90;;;;;;5116680;28;20458;-77
2021/12/22 15:03:41;;;;;;;24.97;13.40;;;-2.10;99.90;;;;;;5116588;28;20501;-77
2021/12/22 15:06:12;;;;;;;29.07;13.23;;;-2.00;99.90;;;;;;5116388;28;20433;-78
2021/12/22 15:08:39;;;;;;;22.17;13.53;;;-2.00;99.90;;;;;;5117298;27;20417;-77
2021/12/22 15:11:07;;;;;;;22.20;13.07;;;-2.00;99.90;;;;;;5115627;28;20538;-77
2021/12/22 15:13:34;;;;;;;23.43;13.40;;;-1.80;99.90;;;;;;5116928;28;20491;-77
2021/12/22 15:16:00;;;;;;;24.17;13.97;;;-2.00;99.90;;;;;;5116881;28;20832;-77
2021/12/22 15:18:26;;;;;;;21.83;12.57;;;;;;;;;;5115959;28;20789;-77
2021/12/22 15:20:52;;;;;;;26.20;13.47;;;-2.20;99.90;;;;;;5117413;28;20401;-77
2021/12/22 15:23:18;;;;;;;21.70;13.43;;;;;;;;;;5116234;28;20478;-77
2021/12/22 15:25:45;;;;;;;22.60;13.53;;;-2.10;99.90;;;;;;5116393;28;20294;-77
2021/12/22 15:28:13;;;;;;;21.90;13.13;;;-2.10;99.90;;;;;;5116909;28;20809;-78
2021/12/22 15:30:40;;;;;;;21.33;13.47;;;-2.00;99.90;;;;;;5116725;28;20449;-77
2021/12/22 15:33:06;;;;;;;21.23;12.20;;;-2.00;99.90;;;;;;5117755;28;20410;-79
2021/12/22 15:35:33;;;;;;;23.00;13.17;;;-2.10;99.90;;;;;;5117218;28;20443;-77
2021/12/22 15:37:58;;;;;;;22.87;13.67;;;-2.00;99.90;;;;;;5119240;28;20419;-77
2021/12/22 15:40:24;;;;;;;28.53;14.23;;;-2.10;99.90;;;;;;5122900;28;20416;-77
2021/12/22 15:42:50;;;;;;;21.90;12.87;;;-2.20;99.90;;;;;;5118428;28;20167;-78
2021/12/22 15:45:15;;;;;;;22.53;13.23;;;-2.20;99.90;;;;;;5116604;28;20171;-77
2021/12/22 15:47:41;;;;;;;21.87;13.40;;;;;;;;;;5117112;28;20216;-77
2021/12/22 15:50:10;;;;;;;24.17;13.57;;;-2.30;99.90;;;;;;5116584;28;20191;-77
2021/12/22 15:52:36;;;;;;;23.80;12.47;;;-2.20;99.90;;;;;;5115410;28;20500;-77
2021/12/22 15:55:03;;;;;;;28.07;15.07;;;-2.50;99.90;;;;;;5116980;28;20402;-77
2021/12/22 15:57:30;;;;;;;24.77;14.03;;;;;;;;;;5116492;28;20457;-77
2021/12/22 15:59:58;;;;;;;22.60;13.07;;;;;;;;;;5116365;28;20384;-77
2021/12/22 16:02:24;;;;;;;22.80;13.57;;;-2.70;99.90;;;;;;5116614;28;20490;-77
2021/12/22 16:04:50;;;;;;;27.03;14.97;;;-2.80;99.90;;;;;;5117492;28;20416;-77
2021/12/22 16:07:16;;;;;;;22.10;13.13;;;;;;;;;;5116411;28;20990;-77
2021/12/22 16:09:42;;;;;;;23.10;14.33;;;;;;;;;;5116582;28;20542;-77
2021/12/22 16:12:08;;;;;;;23.80;13.17;;;-3.00;99.90;;;;;;5116420;28;20438;-78
2021/12/22 16:14:34;;;;;;;22.23;12.57;;;-2.90;99.90;;;;;;5114659;28;20675;-78
2021/12/22 16:17:00;;;;;;;22.53;13.77;;;;;;;;;;5115251;28;20427;-77
2021/12/22 16:19:26;;;;;;;18.63;11.27;;;;;;;;;;5116288;28;20259;-77
2021/12/22 16:21:52;;;;;;;29.00;13.33;;;;;;;;;;5115178;28;20171;-77
2021/12/22 16:24:18;;;;;;;23.37;12.87;;;;;;;;;;5115797;28;20408;-78
2021/12/22 16:26:44;;;;;;;23.10;13.77;;;-3.10;99.90;;;;;;5114352;28;20438;-77
2021/12/22 16:29:10;;;;;;;25.07;12.17;;;-3.10;99.90;;;;;;5114726;28;20768;-78
2021/12/22 16:31:35;;;;;;;25.10;13.53;;;-3.10;99.90;;;;;;5114874;28;20203;-77
2021/12/22 16:34:01;;;;;;;22.97;12.47;;;-3.10;99.90;;;;;;5115124;28;20179;-77
2021/12/22 16:36:28;;;;;;;30.50;14.77;;;-3.20;99.90;;;;;;5116383;28;20197;-78
2021/12/22 16:38:54;;;;;;;25.17;13.87;;;-3.20;99.90;;;;;;5118217;28;20444;-78
2021/12/22 16:41:22;;;;;;;26.13;14.17;;;-3.20;99.90;;;;;;5118289;28;20443;-78
2021/12/22 16:43:48;;;;;;;22.03;13.17;;;-3.20;99.90;;;;;;5118917;28;20423;-77
2021/12/22 16:46:14;;;;;;;23.33;12.63;;;;;;;;;;5114138;28;20433;-78
2021/12/22 16:48:40;;;;;;;22.67;12.67;;;-3.20;99.90;;;;;;5114230;28;20232;-77
2021/12/22 16:51:06;;;;;;;25.77;12.53;;;-1.50;99.90;;;;;;5114977;28;20665;-77
2021/12/22 16:53:31;;;;;;;25.20;14.23;;;-3.30;99.90;;;;;;5116878;28;20183;-79
2021/12/22 16:55:58;;;;;;;27.53;14.77;;;-3.40;99.90;;;;;;5118486;28;20688;-78
2021/12/22 16:58:24;;;;;;;28.07;16.13;;;-3.40;99.90;;;;;;5119993;28;20620;-78
2021/12/22 17:00:50;;;;;;;29.87;15.00;;;-3.40;99.90;;;;;;5118099;28;20417;-79
2021/12/22 17:03:15;;;;;;;22.40;14.03;;;-3.40;99.90;;;;;;5120768;28;20193;-78
2021/12/22 17:05:48;;;;;;;27.70;14.73;;;-3.40;99.90;;;;;;5115970;28;20664;-79
2021/12/22 17:08:14;;;;;;;24.07;13.43;;;;;;;;;;5117372;28;20187;-78
2021/12/22 17:10:40;;;;;;;24.43;14.07;;;-3.50;99.90;;;;;;5115572;28;20472;-78
2021/12/22 17:13:07;;;;;;;37.57;19.83;;;-3.60;99.90;;;;;;5116973;28;20451;-78
2021/12/22 17:15:34;;;;;;;40.63;20.50;;;-3.60;99.90;;;;;;5118105;28;20423;-78
2021/12/22 17:18:01;;;;;;;36.47;19.17;;;-3.60;99.90;;;;;;5116718;28;20459;-78
2021/12/22 17:20:29;;;;;;;30.03;17.70;;;-3.70;99.90;;;;;;5116358;28;20428;-78
2021/12/22 17:22:57;;;;;;;26.63;15.30;;;;;;;;;;5117283;28;20917;-80
2021/12/22 17:25:23;;;;;;;29.47;16.77;;;-3.80;99.90;;;;;;5115926;28;20413;-79
2021/12/22 17:27:49;;;;;;;28.10;15.80;;;-3.80;99.90;;;;;;5116977;28;20827;-78
2021/12/22 17:30:21;;;;;;;28.53;16.57;;;-3.80;99.90;;;;;;5120853;28;20449;-78
2021/12/22 17:32:47;;;;;;;35.00;20.00;;;-3.90;99.90;;;;;;5122754;28;20886;-79
2021/12/22 17:35:14;;;;;;;44.70;25.77;;;-4.00;99.90;;;;;;5120491;28;20419;-79
2021/12/22 17:37:39;;;;;;;34.47;19.20;;;-4.00;99.90;;;;;;5120431;28;20460;-78
2021/12/22 17:40:14;;;;;;;53.93;24.10;;;-4.00;99.90;;;;;;5121554;28;20420;-78
2021/12/22 17:42:41;;;;;;;55.87;25.37;;;-4.00;99.90;;;;;;5121924;28;20271;-78
2021/12/22 17:45:09;;;;;;;39.53;21.67;;;-4.00;99.90;;;;;;5121524;28;20415;-78
2021/12/22 17:47:35;;;;;;;35.30;18.60;;;-4.00;99.90;;;;;;5121574;28;20422;-78
2021/12/22 17:50:02;;;;;;;44.33;21.33;;;-4.00;99.90;;;;;;5122599;28;20459;-78
2021/12/22 17:52:28;;;;;;;46.47;21.90;;;-4.00;99.90;;;;;;5126902;28;20189;-78
2021/12/22 17:54:54;;;;;;;49.93;23.90;;;;;;;;;;5120193;28;20415;-78
2021/12/22 17:57:20;;;;;;;54.73;25.70;;;-4.10;99.90;;;;;;5121152;28;20664;-79
2021/12/22 17:59:46;;;;;;;52.27;23.27;;;-4.10;99.90;;;;;;5120563;28;20190;-78
2021/12/22 18:02:12;;;;;;;41.13;21.77;;;;;;;;;;5119388;28;20175;-78
2021/12/22 18:04:37;;;;;;;45.37;22.10;;;-4.10;99.90;;;;;;5120948;28;20187;-79
2021/12/22 18:07:06;;;;;;;37.30;19.73;;;-4.10;99.90;;;;;;5122534;28;20203;-79
2021/12/22 18:09:31;;;;;;;36.60;20.53;;;-4.00;99.90;;;;;;5120780;28;20192;-79
2021/12/22 18:11:57;;;;;;;34.77;19.00;;;-4.10;99.90;;;;;;5120561;28;20924;-79
2021/12/22 18:14:23;;;;;;;33.27;18.57;;;;;;;;;;5119291;28;20673;-79
2021/12/22 18:16:51;;;;;;;34.77;17.30;;;-3.90;99.90;;;;;;5121180;28;20417;-79
2021/12/22 18:19:17;;;;;;;32.60;17.20;;;-3.90;99.90;;;;;;5120106;28;20413;-79
2021/12/22 18:21:44;;;;;;;32.47;17.03;;;-3.90;99.90;;;;;;5119821;28;20433;-78
2021/12/22 18:24:10;;;;;;;36.17;17.97;;;;;;;;;;5120942;28;20793;-78
2021/12/22 18:26:37;;;;;;;37.43;17.77;;;-4.00;99.90;;;;;;5120939;28;20999;-81
2021/12/22 18:29:08;;;;;;;42.17;19.73;;;-4.00;99.90;;;;;;5120624;28;20457;-79
2021/12/22 18:31:38;;;;;;;40.80;21.57;;;-4.00;99.90;;;;;;5121105;28;20455;-79
2021/12/22 18:34:07;;;;;;;39.47;20.77;;;-4.00;99.90;;;;;;5120797;28;20405;-79
2021/12/22 18:36:37;;;;;;;38.70;19.97;;;;;;;;;;5121756;28;20475;-79
2021/12/22 18:39:09;;;;;;;36.73;19.20;;;-4.20;99.90;;;;;;5119674;28;20417;-79
2021/12/22 18:41:35;;;;;;;39.70;20.30;;;-4.10;99.90;;;;;;5121418;28;20408;-79
2021/12/22 18:44:01;;;;;;;35.17;19.13;;;-4.20;99.90;;;;;;5119482;28;20413;-79
2021/12/22 18:46:28;;;;;;;38.87;19.47;;;-4.20;99.90;;;;;;5120061;28;20444;-79
2021/12/22 18:49:03;;;;;;;33.33;18.60;;;-4.30;99.90;;;;;;5129327;28;20174;-78
2021/12/22 18:51:30;;;;;;;37.13;18.57;;;-4.40;99.90;;;;;;5121845;28;20444;-79
2021/12/22 18:53:57;;;;;;;35.87;18.87;;;-4.50;99.90;;;;;;5120175;28;20418;-79
2021/12/22 18:56:25;;;;;;;33.20;17.93;;;-4.50;99.90;;;;;;5119838;28;20433;-78
2021/12/22 18:58:51;;;;;;;32.73;19.43;;;;;;;;;;5119385;28;20414;-79
2021/12/22 19:01:17;;;;;;;34.87;18.53;;;-4.50;99.90;;;;;;5120508;28;20474;-78
2021/12/22 19:03:43;;;;;;;32.83;17.50;;;-4.50;99.90;;;;;;5118755;28;20423;-79
2021/12/22 19:06:09;;;;;;;31.47;17.23;;;-4.50;99.90;;;;;;5118750;28;20437;-79
2021/12/22 19:08:35;;;;;;;33.90;18.10;;;-4.40;99.90;;;;;;5120468;28;20189;-79
2021/12/22 19:11:01;;;;;;;35.20;17.80;;;;;;;;;;5119557;28;20252;-78
2021/12/22 19:13:27;;;;;;;32.13;19.07;;;-4.40;99.90;;;;;;5118718;28;20193;-79
2021/12/22 19:15:53;;;;;;;36.90;18.83;;;;;;;;;;5118715;28;20460;-79
2021/12/22 19:18:19;;;;;;;34.87;17.60;;;-4.40;99.90;;;;;;5119545;28;20198;-79
2021/12/22 19:20:46;;;;;;;30.10;15.20;;;-4.50;99.90;;;;;;5118209;28;20519;-78
2021/12/22 19:23:13;;;;;;;34.40;17.23;;;-4.50;99.90;;;;;;5117990;28;20423;-78
2021/12/22 19:25:39;;;;;;;33.87;17.37;;;-4.70;99.90;;;;;;5119936;28;20436;-79
2021/12/22 19:28:05;;;;;;;29.73;15.83;;;-4.70;99.90;;;;;;5120960;28;20413;-78
2021/12/22 19:30:33;;;;;;;34.07;18.47;;;-4.70;99.90;;;;;;5120294;28;20195;-78
2021/12/22 19:33:00;;;;;;;38.43;20.03;;;-4.70;99.90;;;;;;5120617;28;20411;-79
2021/12/22 19:35:26;;;;;;;33.87;17.00;;;-4.60;99.90;;;;;;5121292;28;20416;-79
2021/12/22 19:37:52;;;;;;;37.83;18.33;;;-4.60;99.90;;;;;;5120183;28;20429;-79
2021/12/22 19:40:18;;;;;;;31.70;17.23;;;-4.60;99.90;;;;;;5120935;28;20666;-79
2021/12/22 19:42:44;;;;;;;39.13;19.70;;;-4.60;99.90;;;;;;5117104;28;20186;-79
2021/12/22 19:45:11;;;;;;;35.40;18.07;;;-4.60;99.90;;;;;;5120640;28;20480;-79
2021/12/22 19:47:39;;;;;;;37.17;17.40;;;-4.60;99.90;;;;;;5118644;28;20447;-79
2021/12/22 19:50:07;;;;;;;31.07;16.83;;;-4.60;99.90;;;;;;5119919;28;20456;-79
2021/12/22 19:52:33;;;;;;;32.37;17.37;;;-4.70;99.90;;;;;;5119967;28;20504;-78
2021/12/22 19:55:00;;;;;;;32.70;18.37;;;-4.80;99.90;;;;;;5119442;28;20407;-78
2021/12/22 19:57:26;;;;;;;36.40;19.00;;;-4.70;99.90;;;;;;5118864;28;20427;-78
2021/12/22 19:59:52;;;;;;;38.43;20.50;;;-4.80;99.90;;;;;;5119797;28;20530;-78
2021/12/22 20:02:18;;;;;;;44.93;23.40;;;-4.70;99.90;;;;;;5118865;28;20459;-78
2021/12/22 20:04:44;;;;;;;42.97;20.73;;;;;;;;;;5119785;28;20184;-79
2021/12/22 20:07:10;;;;;;;42.80;20.40;;;-4.70;99.90;;;;;;5121475;28;20254;-79
2021/12/22 20:09:36;;;;;;;43.30;21.87;;;;;;;;;;5124686;28;20426;-78
2021/12/22 20:12:02;;;;;;;34.57;17.87;;;-4.70;99.90;;;;;;5123461;28;20402;-78
2021/12/22 20:14:28;;;;;;;38.53;17.03;;;-4.70;99.90;;;;;;5123641;28;20911;-79
2021/12/22 20:16:56;;;;;;;33.27;16.47;;;;;;;;;;5120896;28;20420;-78
2021/12/22 20:19:23;;;;;;;31.23;16.77;;;-4.80;99.90;;;;;;5119569;28;20230;-79
2021/12/22 20:21:49;;;;;;;28.00;15.70;;;;;;;;;;5119643;28;20456;-78
2021/12/22 20:24:15;;;;;;;36.97;17.10;;;;;;;;;;5118992;28;20404;-78
2021/12/22 20:26:41;;;;;;;34.00;16.53;;;-4.80;99.90;;;;;;5117628;28;20440;-78
2021/12/22 20:29:07;;;;;;;30.73;17.60;;;;;;;;;;5117559;28;20490;-78
2021/12/22 20:31:34;;;;;;;41.40;21.53;;;;;;;;;;5117852;28;20459;-78
2021/12/22 20:34:00;;;;;;;42.93;21.80;;;;;;;;;;5117093;28;20427;-78
2021/12/22 20:36:26;;;;;;;46.83;21.63;;;;;;;;;;5117635;28;20842;-78
2021/12/22 20:38:52;;;;;;;37.30;17.50;;;-5.00;99.90;;;;;;5115818;28;20480;-78
2021/12/22 20:41:19;;;;;;;36.07;16.87;;;-4.10;99.90;;;;;;5117673;28;20450;-78
2021/12/22 20:43:45;;;;;;;30.63;16.83;;;-5.10;99.90;;;;;;5121816;28;20178;-78
2021/12/22 20:46:16;;;;;;;29.97;15.63;;;;;;;;;;5116506;28;20955;-78
2021/12/22 20:48:47;;;;;;;26.13;14.00;;;-5.30;99.90;;;;;;5116552;28;20784;-78
2021/12/22 20:51:14;;;;;;;25.47;15.23;;;-5.40;99.90;;;;;;5117943;28;20486;-78
2021/12/22 20:53:40;;;;;;;21.57;13.53;;;-5.70;99.90;;;;;;5117782;28;20411;-78
2021/12/22 20:56:07;;;;;;;21.20;11.93;;;-5.80;99.90;;;;;;5117726;28;20485;-78
2021/12/22 20:58:33;;;;;;;27.63;15.10;;;-5.80;99.90;;;;;;5115944;28;20415;-78
2021/12/22 21:00:59;;;;;;;28.97;15.93;;;-6.00;99.90;;;;;;5116844;28;20416;-78
2021/12/22 21:03:25;;;;;;;37.23;18.93;;;-6.00;99.90;;;;;;5116882;28;20272;-78
2021/12/22 21:05:52;;;;;;;31.67;17.83;;;-6.00;99.90;;;;;;5117412;28;20470;-78
2021/12/22 21:08:19;;;;;;;34.70;18.63;;;-6.10;99.90;;;;;;5118052;28;20590;-78
2021/12/22 21:10:46;;;;;;;33.20;18.23;;;;;;;;;;5116019;28;20463;-78
2021/12/22 21:13:12;;;;;;;73.50;31.07;;;-6.10;99.90;;;;;;5116821;28;20408;-78
2021/12/22 21:15:41;;;;;;;74.43;33.23;;;-6.10;99.90;;;;;;5117864;28;20435;-78
2021/12/22 21:18:08;;;;;;;77.20;31.97;;;-6.10;99.90;;;;;;5119712;28;20412;-78
2021/12/22 21:20:35;;;;;;;70.97;31.00;;;-5.90;99.90;;;;;;5122296;28;20409;-78
2021/12/22 21:23:01;;;;;;;57.80;26.47;;;-5.80;99.90;;;;;;5117126;28;20529;-78
2021/12/22 21:25:27;;;;;;;45.20;22.57;;;;;;;;;;5116438;28;20425;-78
2021/12/22 21:27:54;;;;;;;46.30;23.43;;;-5.90;99.90;;;;;;5116881;28;20410;-78
2021/12/22 21:30:22;;;;;;;43.10;21.20;;;-5.90;99.90;;;;;;5116667;28;20462;-78
2021/12/22 21:32:48;;;;;;;44.43;21.23;;;-5.90;99.90;;;;;;5115928;28;20441;-78
2021/12/22 21:35:14;;;;;;;34.43;18.20;;;-5.80;99.90;;;;;;5115638;28;20931;-78
2021/12/22 21:37:41;;;;;;;37.70;17.63;;;-5.80;99.90;;;;;;5117402;28;20862;-78
2021/12/22 21:40:09;;;;;;;34.83;19.00;;;-5.80;99.90;;;;;;5115515;28;20892;-78
2021/12/22 21:42:34;;;;;;;36.57;19.67;;;-5.90;99.90;;;;;;5115964;28;20430;-78
2021/12/22 21:45:00;;;;;;;39.53;20.03;;;-5.90;99.90;;;;;;5115927;28;20419;-78
2021/12/22 21:47:26;;;;;;;33.00;17.60;;;-6.00;99.90;;;;;;5117352;28;20214;-78
2021/12/22 21:49:53;;;;;;;40.40;19.77;;;-6.00;99.90;;;;;;5115232;28;20239;-78
2021/12/22 21:52:19;;;;;;;36.17;17.37;;;-6.10;99.90;;;;;;5118298;28;20178;-78
2021/12/22 21:54:45;;;;;;;36.17;18.23;;;-6.10;99.90;;;;;;5115968;28;20422;-78
2021/12/22 21:57:11;;;;;;;33.27;17.27;;;-6.10;99.90;;;;;;5116753;28;20493;-79
2021/12/22 21:59:37;;;;;;;34.43;17.30;;;-2.70;99.90;;;;;;5116952;28;20182;-78
2021/12/22 22:02:03;;;;;;;38.50;19.10;;;-6.10;99.90;;;;;;5116831;28;20170;-78
2021/12/22 22:04:29;;;;;;;40.23;19.27;;;-6.10;99.90;;;;;;5117535;28;20584;-78
2021/12/22 22:06:55;;;;;;;38.73;18.40;;;-6.00;99.90;;;;;;5117487;28;20435;-78
2021/12/22 22:09:21;;;;;;;35.27;18.27;;;;;;;;;;5116109;28;20417;-78
2021/12/22 22:11:49;;;;;;;22.80;12.63;;;-6.00;99.90;;;;;;5118874;28;20453;-78
2021/12/22 22:14:15;;;;;;;34.43;17.53;;;-6.10;99.90;;;;;;5120216;28;20931;-78
2021/12/22 22:16:43;;;;;;;31.07;14.77;;;-6.10;99.90;;;;;;5120326;28;20430;-79
2021/12/22 22:19:09;;;;;;;26.70;14.10;;;-6.20;99.90;;;;;;5120098;28;20417;-78